sensor_id;sensor_type;location;lat;lon;timestamp;P1;durP1;ratioP1;P2;durP2;ratioP2
78169;SDS011;67412;49.892;14.490;2023-04-15T00:00:29;3.70;;;1.45;;
78169;SDS011;67412;49.892;14.490;2023-04-15T00:02:54;6.00;;;2.50;;
78169;SDS011;67412;49.892;14.490;2023-04-15T00:05:20;4.93;;;1.83;;
78169;SDS011;67412;49.892;14.490;2023-04-15T00:07:45;4.03;;;1.60;;
78169;SDS011;67412;49.892;14.490;2023-04-15T00:10:11;3.42;;;1.55;;
78169;SDS011;67412;49.892;14.490;2023-04-15T00:12:37;3.92;;;1.85;;
78169;SDS011;67412;49.892;14.490;2023-04-15T00:15:03;5.93;;;2.35;;
78169;SDS011;67412;49.892;14.490;2023-04-15T00:17:28;4.05;;;2.00;;
78169;SDS011;67412;49.892;14.490;2023-04-15T00:19:54;3.47;;;1.48;;
78169;SDS011;67412;49.892;14.490;2023-04-15T00:22:19;4.80;;;1.90;;
78169;SDS011;67412;49.892;14.490;2023-04-15T00:24:45;3.13;;;1.55;;
78169;SDS011;67412;49.892;14.490;2023-04-15T00:27:10;4.35;;;1.40;;
78169;SDS011;67412;49.892;14.490;2023-04-15T00:29:36;3.30;;;1.58;;
78169;SDS011;67412;49.892;14.490;2023-04-15T00:32:01;3.35;;;1.50;;
78169;SDS011;67412;49.892;14.490;2023-04-15T00:34:27;3.88;;;1.33;;
78169;SDS011;67412;49.892;14.490;2023-04-15T00:36:52;3.05;;;1.27;;
78169;SDS011;67412;49.892;14.490;2023-04-15T00:39:18;3.72;;;1.23;;
78169;SDS011;67412;49.892;14.490;2023-04-15T00:41:45;3.58;;;1.42;;
78169;SDS011;67412;49.892;14.490;2023-04-15T00:44:11;3.38;;;1.30;;
78169;SDS011;67412;49.892;14.490;2023-04-15T00:46:36;4.63;;;1.60;;
78169;SDS011;67412;49.892;14.490;2023-04-15T00:49:03;4.95;;;1.83;;
78169;SDS011;67412;49.892;14.490;2023-04-15T00:51:30;4.07;;;1.38;;
78169;SDS011;67412;49.892;14.490;2023-04-15T00:53:57;2.58;;;1.13;;
78169;SDS011;67412;49.892;14.490;2023-04-15T00:56:26;3.15;;;1.30;;
78169;SDS011;67412;49.892;14.490;2023-04-15T00:58:53;1.88;;;1.08;;
78169;SDS011;67412;49.892;14.490;2023-04-15T01:01:22;3.95;;;1.45;;
78169;SDS011;67412;49.892;14.490;2023-04-15T01:03:49;2.47;;;1.30;;
78169;SDS011;67412;49.892;14.490;2023-04-15T01:06:15;1.95;;;1.15;;
78169;SDS011;67412;49.892;14.490;2023-04-15T01:08:41;1.95;;;1.00;;
78169;SDS011;67412;49.892;14.490;2023-04-15T01:11:07;1.95;;;1.02;;
78169;SDS011;67412;49.892;14.490;2023-04-15T01:13:34;1.80;;;0.75;;
78169;SDS011;67412;49.892;14.490;2023-04-15T01:16:00;1.02;;;0.60;;
78169;SDS011;67412;49.892;14.490;2023-04-15T01:18:27;1.73;;;0.80;;
78169;SDS011;67412;49.892;14.490;2023-04-15T01:20:53;1.27;;;0.60;;
78169;SDS011;67412;49.892;14.490;2023-04-15T01:23:19;3.17;;;0.90;;
78169;SDS011;67412;49.892;14.490;2023-04-15T01:25:46;2.72;;;0.90;;
78169;SDS011;67412;49.892;14.490;2023-04-15T01:28:13;1.50;;;0.98;;
78169;SDS011;67412;49.892;14.490;2023-04-15T01:30:38;3.15;;;1.00;;
78169;SDS011;67412;49.892;14.490;2023-04-15T01:33:04;1.98;;;1.02;;
78169;SDS011;67412;49.892;14.490;2023-04-15T01:35:29;3.65;;;1.40;;
78169;SDS011;67412;49.892;14.490;2023-04-15T01:37:54;1.67;;;0.70;;
78169;SDS011;67412;49.892;14.490;2023-04-15T01:40:29;2.15;;;1.10;;
78169;SDS011;67412;49.892;14.490;2023-04-15T01:42:54;1.30;;;0.77;;
78169;SDS011;67412;49.892;14.490;2023-04-15T01:45:20;1.85;;;0.82;;
78169;SDS011;67412;49.892;14.490;2023-04-15T01:47:45;1.35;;;0.63;;
78169;SDS011;67412;49.892;14.490;2023-04-15T01:50:11;1.38;;;0.70;;
78169;SDS011;67412;49.892;14.490;2023-04-15T01:52:37;2.13;;;0.90;;
78169;SDS011;67412;49.892;14.490;2023-04-15T01:55:02;1.88;;;0.90;;
78169;SDS011;67412;49.892;14.490;2023-04-15T01:57:32;2.67;;;0.88;;
78169;SDS011;67412;49.892;14.490;2023-04-15T01:59:58;1.85;;;0.60;;
78169;SDS011;67412;49.892;14.490;2023-04-15T02:02:23;1.70;;;0.82;;
78169;SDS011;67412;49.892;14.490;2023-04-15T02:04:49;0.73;;;0.60;;
78169;SDS011;67412;49.892;14.490;2023-04-15T02:07:14;2.40;;;0.95;;
78169;SDS011;67412;49.892;14.490;2023-04-15T02:09:40;3.05;;;1.55;;
78169;SDS011;67412;49.892;14.490;2023-04-15T02:12:05;4.65;;;1.63;;
78169;SDS011;67412;49.892;14.490;2023-04-15T02:14:30;4.28;;;1.40;;
78169;SDS011;67412;49.892;14.490;2023-04-15T02:16:56;5.15;;;2.00;;
78169;SDS011;67412;49.892;14.490;2023-04-15T02:19:21;5.72;;;2.28;;
78169;SDS011;67412;49.892;14.490;2023-04-15T02:21:46;5.05;;;2.45;;
78169;SDS011;67412;49.892;14.490;2023-04-15T02:24:12;4.72;;;2.10;;
78169;SDS011;67412;49.892;14.490;2023-04-15T02:26:37;5.50;;;1.92;;
78169;SDS011;67412;49.892;14.490;2023-04-15T02:29:02;3.40;;;1.45;;
78169;SDS011;67412;49.892;14.490;2023-04-15T02:31:28;5.60;;;1.40;;
78169;SDS011;67412;49.892;14.490;2023-04-15T02:33:53;5.82;;;1.80;;
78169;SDS011;67412;49.892;14.490;2023-04-15T02:36:18;3.85;;;1.38;;
78169;SDS011;67412;49.892;14.490;2023-04-15T02:38:45;2.22;;;1.10;;
78169;SDS011;67412;49.892;14.490;2023-04-15T02:41:10;3.33;;;1.00;;
78169;SDS011;67412;49.892;14.490;2023-04-15T02:43:36;1.08;;;0.90;;
78169;SDS011;67412;49.892;14.490;2023-04-15T02:46:04;3.40;;;0.95;;
78169;SDS011;67412;49.892;14.490;2023-04-15T02:48:29;2.15;;;0.90;;
78169;SDS011;67412;49.892;14.490;2023-04-15T02:51:09;1.65;;;0.88;;
78169;SDS011;67412;49.892;14.490;2023-04-15T02:53:35;1.33;;;0.65;;
78169;SDS011;67412;49.892;14.490;2023-04-15T02:56:01;2.40;;;0.95;;
78169;SDS011;67412;49.892;14.490;2023-04-15T02:58:26;1.83;;;1.10;;
78169;SDS011;67412;49.892;14.490;2023-04-15T03:00:51;2.88;;;1.30;;
78169;SDS011;67412;49.892;14.490;2023-04-15T03:03:16;3.65;;;1.35;;
78169;SDS011;67412;49.892;14.490;2023-04-15T03:05:42;2.60;;;1.20;;
78169;SDS011;67412;49.892;14.490;2023-04-15T03:08:08;4.22;;;1.50;;
78169;SDS011;67412;49.892;14.490;2023-04-15T03:10:33;2.80;;;1.10;;
78169;SDS011;67412;49.892;14.490;2023-04-15T03:12:59;2.53;;;1.17;;
78169;SDS011;67412;49.892;14.490;2023-04-15T03:15:25;2.22;;;1.20;;
78169;SDS011;67412;49.892;14.490;2023-04-15T03:17:51;3.70;;;1.35;;
78169;SDS011;67412;49.892;14.490;2023-04-15T03:20:16;2.47;;;1.30;;
78169;SDS011;67412;49.892;14.490;2023-04-15T03:22:41;2.60;;;1.30;;
78169;SDS011;67412;49.892;14.490;2023-04-15T03:25:07;2.73;;;0.90;;
78169;SDS011;67412;49.892;14.490;2023-04-15T03:27:32;3.28;;;1.10;;
78169;SDS011;67412;49.892;14.490;2023-04-15T03:29:58;1.20;;;0.90;;
78169;SDS011;67412;49.892;14.490;2023-04-15T03:32:23;2.00;;;1.10;;
78169;SDS011;67412;49.892;14.490;2023-04-15T03:34:48;2.53;;;1.45;;
78169;SDS011;67412;49.892;14.490;2023-04-15T03:37:14;1.30;;;0.80;;
78169;SDS011;67412;49.892;14.490;2023-04-15T03:39:39;1.88;;;1.00;;
78169;SDS011;67412;49.892;14.490;2023-04-15T03:42:04;1.73;;;1.00;;
78169;SDS011;67412;49.892;14.490;2023-04-15T03:44:30;7.88;;;2.92;;
78169;SDS011;67412;49.892;14.490;2023-04-15T03:46:55;11.18;;;4.68;;
78169;SDS011;67412;49.892;14.490;2023-04-15T03:49:20;13.40;;;5.05;;
78169;SDS011;67412;49.892;14.490;2023-04-15T03:51:47;15.00;;;5.50;;
78169;SDS011;67412;49.892;14.490;2023-04-15T03:54:12;11.82;;;5.18;;
78169;SDS011;67412;49.892;14.490;2023-04-15T03:56:39;11.93;;;5.07;;
78169;SDS011;67412;49.892;14.490;2023-04-15T03:59:04;9.23;;;3.28;;
78169;SDS011;67412;49.892;14.490;2023-04-15T04:01:30;9.52;;;3.85;;
78169;SDS011;67412;49.892;14.490;2023-04-15T04:03:55;10.23;;;3.75;;
78169;SDS011;67412;49.892;14.490;2023-04-15T04:06:20;9.65;;;3.65;;
78169;SDS011;67412;49.892;14.490;2023-04-15T04:08:46;7.28;;;3.25;;
78169;SDS011;67412;49.892;14.490;2023-04-15T04:11:11;8.77;;;3.05;;
78169;SDS011;67412;49.892;14.490;2023-04-15T04:13:37;7.43;;;2.85;;
78169;SDS011;67412;49.892;14.490;2023-04-15T04:16:02;8.35;;;3.13;;
78169;SDS011;67412;49.892;14.490;2023-04-15T04:18:29;7.88;;;3.00;;
78169;SDS011;67412;49.892;14.490;2023-04-15T04:20:55;6.47;;;2.60;;
78169;SDS011;67412;49.892;14.490;2023-04-15T04:23:20;6.72;;;2.50;;
78169;SDS011;67412;49.892;14.490;2023-04-15T04:25:46;7.32;;;2.88;;
78169;SDS011;67412;49.892;14.490;2023-04-15T04:28:11;6.55;;;2.83;;
78169;SDS011;67412;49.892;14.490;2023-04-15T04:30:36;5.63;;;2.50;;
78169;SDS011;67412;49.892;14.490;2023-04-15T04:33:02;7.03;;;2.13;;
78169;SDS011;67412;49.892;14.490;2023-04-15T04:35:27;7.07;;;2.40;;
78169;SDS011;67412;49.892;14.490;2023-04-15T04:37:53;6.45;;;2.42;;
78169;SDS011;67412;49.892;14.490;2023-04-15T04:40:18;5.40;;;2.20;;
78169;SDS011;67412;49.892;14.490;2023-04-15T04:42:43;6.00;;;2.17;;
78169;SDS011;67412;49.892;14.490;2023-04-15T04:45:09;5.15;;;2.17;;
78169;SDS011;67412;49.892;14.490;2023-04-15T04:47:34;6.40;;;2.42;;
78169;SDS011;67412;49.892;14.490;2023-04-15T04:49:59;6.57;;;2.30;;
78169;SDS011;67412;49.892;14.490;2023-04-15T04:52:25;7.35;;;2.58;;
78169;SDS011;67412;49.892;14.490;2023-04-15T04:54:50;6.85;;;2.47;;
78169;SDS011;67412;49.892;14.490;2023-04-15T04:57:15;7.20;;;2.63;;
78169;SDS011;67412;49.892;14.490;2023-04-15T04:59:41;5.80;;;2.30;;
78169;SDS011;67412;49.892;14.490;2023-04-15T05:02:06;6.97;;;2.80;;
78169;SDS011;67412;49.892;14.490;2023-04-15T05:04:32;5.28;;;2.45;;
78169;SDS011;67412;49.892;14.490;2023-04-15T05:06:58;7.97;;;2.80;;
78169;SDS011;67412;49.892;14.490;2023-04-15T05:09:23;5.70;;;2.35;;
78169;SDS011;67412;49.892;14.490;2023-04-15T05:11:49;6.60;;;2.65;;
78169;SDS011;67412;49.892;14.490;2023-04-15T05:14:14;6.78;;;2.28;;
78169;SDS011;67412;49.892;14.490;2023-04-15T05:16:40;8.13;;;2.47;;
78169;SDS011;67412;49.892;14.490;2023-04-15T05:19:05;7.55;;;2.60;;
78169;SDS011;67412;49.892;14.490;2023-04-15T05:21:31;6.80;;;2.60;;
78169;SDS011;67412;49.892;14.490;2023-04-15T05:23:57;6.07;;;2.13;;
78169;SDS011;67412;49.892;14.490;2023-04-15T05:26:22;6.53;;;2.28;;
78169;SDS011;67412;49.892;14.490;2023-04-15T05:28:48;6.65;;;2.28;;
78169;SDS011;67412;49.892;14.490;2023-04-15T05:31:14;6.25;;;2.47;;
78169;SDS011;67412;49.892;14.490;2023-04-15T05:33:40;7.47;;;2.53;;
78169;SDS011;67412;49.892;14.490;2023-04-15T05:36:05;6.65;;;2.38;;
78169;SDS011;67412;49.892;14.490;2023-04-15T05:38:31;8.43;;;3.13;;
78169;SDS011;67412;49.892;14.490;2023-04-15T05:40:56;11.00;;;3.20;;
78169;SDS011;67412;49.892;14.490;2023-04-15T05:43:21;7.93;;;2.88;;
78169;SDS011;67412;49.892;14.490;2023-04-15T05:45:47;8.25;;;3.35;;
78169;SDS011;67412;49.892;14.490;2023-04-15T05:48:12;6.63;;;2.63;;
78169;SDS011;67412;49.892;14.490;2023-04-15T05:50:39;7.13;;;2.83;;
78169;SDS011;67412;49.892;14.490;2023-04-15T05:53:05;7.55;;;2.75;;
78169;SDS011;67412;49.892;14.490;2023-04-15T05:55:32;7.30;;;2.65;;
78169;SDS011;67412;49.892;14.490;2023-04-15T05:57:57;5.80;;;2.20;;
78169;SDS011;67412;49.892;14.490;2023-04-15T06:00:22;6.55;;;2.28;;
78169;SDS011;67412;49.892;14.490;2023-04-15T06:02:48;6.15;;;2.45;;
78169;SDS011;67412;49.892;14.490;2023-04-15T06:05:13;11.60;;;2.47;;
78169;SDS011;67412;49.892;14.490;2023-04-15T06:07:39;6.60;;;2.38;;
78169;SDS011;67412;49.892;14.490;2023-04-15T06:10:04;9.35;;;2.80;;
78169;SDS011;67412;49.892;14.490;2023-04-15T06:12:31;5.05;;;2.05;;
78169;SDS011;67412;49.892;14.490;2023-04-15T06:14:56;7.00;;;2.45;;
78169;SDS011;67412;49.892;14.490;2023-04-15T06:17:22;6.82;;;2.35;;
78169;SDS011;67412;49.892;14.490;2023-04-15T06:19:47;7.97;;;2.35;;
78169;SDS011;67412;49.892;14.490;2023-04-15T06:22:14;6.20;;;2.17;;
78169;SDS011;67412;49.892;14.490;2023-04-15T06:24:40;7.03;;;2.05;;
78169;SDS011;67412;49.892;14.490;2023-04-15T06:27:05;4.55;;;1.83;;
78169;SDS011;67412;49.892;14.490;2023-04-15T06:29:31;5.32;;;1.63;;
78169;SDS011;67412;49.892;14.490;2023-04-15T06:31:56;6.40;;;2.40;;
78169;SDS011;67412;49.892;14.490;2023-04-15T06:34:21;6.28;;;2.00;;
78169;SDS011;67412;49.892;14.490;2023-04-15T06:36:47;5.55;;;1.98;;
78169;SDS011;67412;49.892;14.490;2023-04-15T06:39:12;4.07;;;1.50;;
78169;SDS011;67412;49.892;14.490;2023-04-15T06:41:37;3.72;;;1.48;;
78169;SDS011;67412;49.892;14.490;2023-04-15T06:44:03;4.40;;;1.80;;
78169;SDS011;67412;49.892;14.490;2023-04-15T06:46:28;5.53;;;1.80;;
78169;SDS011;67412;49.892;14.490;2023-04-15T06:48:53;7.15;;;2.10;;
78169;SDS011;67412;49.892;14.490;2023-04-15T06:51:19;5.05;;;1.58;;
78169;SDS011;67412;49.892;14.490;2023-04-15T06:53:44;5.10;;;1.75;;
78169;SDS011;67412;49.892;14.490;2023-04-15T06:56:09;3.67;;;1.33;;
78169;SDS011;67412;49.892;14.490;2023-04-15T06:58:35;4.28;;;1.60;;
78169;SDS011;67412;49.892;14.490;2023-04-15T07:01:00;2.78;;;1.30;;
78169;SDS011;67412;49.892;14.490;2023-04-15T07:03:26;4.32;;;1.30;;
78169;SDS011;67412;49.892;14.490;2023-04-15T07:05:51;4.85;;;1.45;;
78169;SDS011;67412;49.892;14.490;2023-04-15T07:08:17;4.30;;;1.42;;
78169;SDS011;67412;49.892;14.490;2023-04-15T07:10:43;3.08;;;1.02;;
78169;SDS011;67412;49.892;14.490;2023-04-15T07:13:10;2.25;;;1.08;;
78169;SDS011;67412;49.892;14.490;2023-04-15T07:15:35;2.03;;;1.02;;
78169;SDS011;67412;49.892;14.490;2023-04-15T07:18:01;2.15;;;0.80;;
78169;SDS011;67412;49.892;14.490;2023-04-15T07:20:26;3.42;;;1.00;;
78169;SDS011;67412;49.892;14.490;2023-04-15T07:22:51;1.95;;;0.90;;
78169;SDS011;67412;49.892;14.490;2023-04-15T07:25:17;2.92;;;0.90;;
78169;SDS011;67412;49.892;14.490;2023-04-15T07:27:43;4.20;;;1.20;;
78169;SDS011;67412;49.892;14.490;2023-04-15T07:30:08;4.38;;;0.88;;
78169;SDS011;67412;49.892;14.490;2023-04-15T07:32:34;4.90;;;1.30;;
78169;SDS011;67412;49.892;14.490;2023-04-15T07:35:00;5.82;;;1.92;;
78169;SDS011;67412;49.892;14.490;2023-04-15T07:39:53;2.53;;;0.95;;
78169;SDS011;67412;49.892;14.490;2023-04-15T07:42:19;2.40;;;0.90;;
78169;SDS011;67412;49.892;14.490;2023-04-15T07:44:44;1.83;;;0.70;;
78169;SDS011;67412;49.892;14.490;2023-04-15T07:47:09;2.38;;;0.90;;
78169;SDS011;67412;49.892;14.490;2023-04-15T07:49:35;0.57;;;0.43;;
78169;SDS011;67412;49.892;14.490;2023-04-15T07:52:01;1.17;;;0.65;;
78169;SDS011;67412;49.892;14.490;2023-04-15T07:54:26;3.88;;;1.08;;
78169;SDS011;67412;49.892;14.490;2023-04-15T07:56:52;1.73;;;0.65;;
78169;SDS011;67412;49.892;14.490;2023-04-15T07:59:17;2.35;;;0.90;;
78169;SDS011;67412;49.892;14.490;2023-04-15T08:01:43;1.52;;;0.60;;
78169;SDS011;67412;49.892;14.490;2023-04-15T08:04:08;2.50;;;1.00;;
78169;SDS011;67412;49.892;14.490;2023-04-15T08:06:34;1.48;;;0.70;;
78169;SDS011;67412;49.892;14.490;2023-04-15T08:09:00;1.77;;;0.85;;
78169;SDS011;67412;49.892;14.490;2023-04-15T08:11:26;3.95;;;1.30;;
78169;SDS011;67412;49.892;14.490;2023-04-15T08:13:51;1.60;;;0.70;;
78169;SDS011;67412;49.892;14.490;2023-04-15T08:18:43;1.42;;;0.57;;
78169;SDS011;67412;49.892;14.490;2023-04-15T08:21:09;2.00;;;0.85;;
78169;SDS011;67412;49.892;14.490;2023-04-15T08:23:35;1.80;;;0.70;;
78169;SDS011;67412;49.892;14.490;2023-04-15T08:26:00;2.40;;;1.05;;
78169;SDS011;67412;49.892;14.490;2023-04-15T08:28:26;1.27;;;0.93;;
78169;SDS011;67412;49.892;14.490;2023-04-15T08:30:51;1.42;;;0.70;;
78169;SDS011;67412;49.892;14.490;2023-04-15T08:33:17;2.53;;;0.90;;
78169;SDS011;67412;49.892;14.490;2023-04-15T08:35:42;2.22;;;1.00;;
78169;SDS011;67412;49.892;14.490;2023-04-15T08:38:08;1.23;;;0.82;;
78169;SDS011;67412;49.892;14.490;2023-04-15T08:40:43;2.30;;;0.80;;
78169;SDS011;67412;49.892;14.490;2023-04-15T08:43:14;1.58;;;0.80;;
78169;SDS011;67412;49.892;14.490;2023-04-15T08:45:45;1.45;;;0.90;;
78169;SDS011;67412;49.892;14.490;2023-04-15T08:48:13;1.42;;;0.73;;
78169;SDS011;67412;49.892;14.490;2023-04-15T08:50:42;1.98;;;1.00;;
78169;SDS011;67412;49.892;14.490;2023-04-15T08:53:12;3.17;;;0.90;;
78169;SDS011;67412;49.892;14.490;2023-04-15T08:55:41;2.85;;;0.80;;
78169;SDS011;67412;49.892;14.490;2023-04-15T08:58:08;2.42;;;0.98;;
78169;SDS011;67412;49.892;14.490;2023-04-15T09:00:35;2.55;;;1.08;;
78169;SDS011;67412;49.892;14.490;2023-04-15T09:03:01;2.47;;;1.15;;
78169;SDS011;67412;49.892;14.490;2023-04-15T09:05:30;2.97;;;1.17;;
78169;SDS011;67412;49.892;14.490;2023-04-15T09:07:56;2.17;;;1.08;;
78169;SDS011;67412;49.892;14.490;2023-04-15T09:10:22;2.33;;;1.02;;
78169;SDS011;67412;49.892;14.490;2023-04-15T09:12:47;2.45;;;1.20;;
78169;SDS011;67412;49.892;14.490;2023-04-15T09:15:12;1.80;;;1.00;;
78169;SDS011;67412;49.892;14.490;2023-04-15T09:17:43;2.20;;;1.13;;
78169;SDS011;67412;49.892;14.490;2023-04-15T09:20:10;3.53;;;0.90;;
78169;SDS011;67412;49.892;14.490;2023-04-15T09:22:40;2.17;;;1.02;;
78169;SDS011;67412;49.892;14.490;2023-04-15T09:27:47;4.97;;;1.33;;
78169;SDS011;67412;49.892;14.490;2023-04-15T09:30:13;2.33;;;0.90;;
78169;SDS011;67412;49.892;14.490;2023-04-15T09:32:47;2.05;;;1.02;;
78169;SDS011;67412;49.892;14.490;2023-04-15T09:35:24;2.65;;;1.30;;
78169;SDS011;67412;49.892;14.490;2023-04-15T09:37:51;2.92;;;1.10;;
78169;SDS011;67412;49.892;14.490;2023-04-15T09:40:36;3.33;;;1.20;;
78169;SDS011;67412;49.892;14.490;2023-04-15T09:43:03;3.33;;;1.30;;
78169;SDS011;67412;49.892;14.490;2023-04-15T09:45:30;3.15;;;1.30;;
78169;SDS011;67412;49.892;14.490;2023-04-15T09:47:57;3.05;;;1.08;;
78169;SDS011;67412;49.892;14.490;2023-04-15T09:50:26;2.67;;;1.30;;
78169;SDS011;67412;49.892;14.490;2023-04-15T09:52:52;3.13;;;1.20;;
78169;SDS011;67412;49.892;14.490;2023-04-15T09:55:17;3.25;;;1.20;;
78169;SDS011;67412;49.892;14.490;2023-04-15T09:57:43;2.20;;;0.93;;
78169;SDS011;67412;49.892;14.490;2023-04-15T10:00:11;1.88;;;1.05;;
78169;SDS011;67412;49.892;14.490;2023-04-15T10:02:38;3.35;;;1.25;;
78169;SDS011;67412;49.892;14.490;2023-04-15T10:05:05;4.13;;;1.20;;
78169;SDS011;67412;49.892;14.490;2023-04-15T10:07:31;2.38;;;1.10;;
78169;SDS011;67412;49.892;14.490;2023-04-15T10:09:57;3.00;;;1.15;;
78169;SDS011;67412;49.892;14.490;2023-04-15T10:12:24;1.70;;;0.98;;
78169;SDS011;67412;49.892;14.490;2023-04-15T10:15:02;2.92;;;1.20;;
78169;SDS011;67412;49.892;14.490;2023-04-15T10:17:31;3.88;;;1.10;;
78169;SDS011;67412;49.892;14.490;2023-04-15T10:20:01;1.67;;;0.90;;
78169;SDS011;67412;49.892;14.490;2023-04-15T10:22:28;1.52;;;0.90;;
78169;SDS011;67412;49.892;14.490;2023-04-15T10:24:57;2.22;;;0.90;;
78169;SDS011;67412;49.892;14.490;2023-04-15T10:27:24;3.50;;;1.10;;
78169;SDS011;67412;49.892;14.490;2023-04-15T10:29:50;2.35;;;0.93;;
78169;SDS011;67412;49.892;14.490;2023-04-15T10:32:19;3.25;;;0.98;;
78169;SDS011;67412;49.892;14.490;2023-04-15T10:34:46;1.88;;;1.13;;
78169;SDS011;67412;49.892;14.490;2023-04-15T10:37:18;3.85;;;1.48;;
78169;SDS011;67412;49.892;14.490;2023-04-15T10:39:45;4.65;;;1.40;;
78169;SDS011;67412;49.892;14.490;2023-04-15T10:42:11;1.52;;;0.93;;
78169;SDS011;67412;49.892;14.490;2023-04-15T10:44:40;1.00;;;0.73;;
78169;SDS011;67412;49.892;14.490;2023-04-15T10:47:12;1.25;;;0.75;;
78169;SDS011;67412;49.892;14.490;2023-04-15T10:49:49;2.10;;;1.00;;
78169;SDS011;67412;49.892;14.490;2023-04-15T10:52:16;1.77;;;0.80;;
78169;SDS011;67412;49.892;14.490;2023-04-15T10:54:46;2.38;;;0.90;;
78169;SDS011;67412;49.892;14.490;2023-04-15T10:57:21;2.90;;;0.80;;
78169;SDS011;67412;49.892;14.490;2023-04-15T11:02:29;2.03;;;0.95;;
78169;SDS011;67412;49.892;14.490;2023-04-15T11:05:13;3.33;;;1.55;;
78169;SDS011;67412;49.892;14.490;2023-04-15T11:13:01;2.72;;;0.90;;
78169;SDS011;67412;49.892;14.490;2023-04-15T11:15:41;1.65;;;0.93;;
78169;SDS011;67412;49.892;14.490;2023-04-15T11:20:41;2.05;;;1.08;;
78169;SDS011;67412;49.892;14.490;2023-04-15T11:23:09;1.35;;;1.00;;
78169;SDS011;67412;49.892;14.490;2023-04-15T11:25:34;2.10;;;1.00;;
78169;SDS011;67412;49.892;14.490;2023-04-15T11:28:03;2.88;;;1.00;;
78169;SDS011;67412;49.892;14.490;2023-04-15T11:30:33;3.35;;;1.40;;
78169;SDS011;67412;49.892;14.490;2023-04-15T11:33:00;3.55;;;1.10;;
78169;SDS011;67412;49.892;14.490;2023-04-15T11:35:28;2.90;;;1.23;;
78169;SDS011;67412;49.892;14.490;2023-04-15T11:37:54;1.90;;;1.02;;
78169;SDS011;67412;49.892;14.490;2023-04-15T11:40:23;2.47;;;1.10;;
78169;SDS011;67412;49.892;14.490;2023-04-15T11:48:25;4.95;;;1.50;;
78169;SDS011;67412;49.892;14.490;2023-04-15T11:50:55;3.97;;;1.55;;
78169;SDS011;67412;49.892;14.490;2023-04-15T11:53:43;3.13;;;1.42;;
78169;SDS011;67412;49.892;14.490;2023-04-15T11:56:16;3.83;;;1.42;;
78169;SDS011;67412;49.892;14.490;2023-04-15T11:58:45;3.25;;;1.27;;
78169;SDS011;67412;49.892;14.490;2023-04-15T12:01:10;4.57;;;1.40;;
78169;SDS011;67412;49.892;14.490;2023-04-15T12:03:37;3.63;;;1.35;;
78169;SDS011;67412;49.892;14.490;2023-04-15T12:14:29;2.28;;;0.85;;
78169;SDS011;67412;49.892;14.490;2023-04-15T12:21:53;3.65;;;1.42;;
78169;SDS011;67412;49.892;14.490;2023-04-15T12:24:23;1.67;;;1.05;;
78169;SDS011;67412;49.892;14.490;2023-04-15T12:31:48;5.38;;;1.63;;
78169;SDS011;67412;49.892;14.490;2023-04-15T12:34:14;3.10;;;1.23;;
78169;SDS011;67412;49.892;14.490;2023-04-15T12:36:40;5.07;;;1.25;;
78169;SDS011;67412;49.892;14.490;2023-04-15T12:39:06;3.28;;;1.20;;
78169;SDS011;67412;49.892;14.490;2023-04-15T12:41:31;5.85;;;1.52;;
78169;SDS011;67412;49.892;14.490;2023-04-15T12:43:57;3.95;;;1.30;;
78169;SDS011;67412;49.892;14.490;2023-04-15T12:46:23;4.10;;;1.20;;
78169;SDS011;67412;49.892;14.490;2023-04-15T12:48:49;3.63;;;1.13;;
78169;SDS011;67412;49.892;14.490;2023-04-15T12:51:16;3.15;;;1.48;;
78169;SDS011;67412;49.892;14.490;2023-04-15T12:53:42;2.53;;;1.23;;
78169;SDS011;67412;49.892;14.490;2023-04-15T12:56:07;2.78;;;1.25;;
78169;SDS011;67412;49.892;14.490;2023-04-15T12:58:32;3.67;;;1.38;;
78169;SDS011;67412;49.892;14.490;2023-04-15T13:00:58;6.10;;;2.28;;
78169;SDS011;67412;49.892;14.490;2023-04-15T13:03:23;9.43;;;4.22;;
78169;SDS011;67412;49.892;14.490;2023-04-15T13:05:49;5.30;;;1.83;;
78169;SDS011;67412;49.892;14.490;2023-04-15T13:08:14;6.80;;;2.55;;
78169;SDS011;67412;49.892;14.490;2023-04-15T13:10:40;8.13;;;2.80;;
78169;SDS011;67412;49.892;14.490;2023-04-15T13:13:09;15.43;;;4.93;;
78169;SDS011;67412;49.892;14.490;2023-04-15T13:15:34;5.22;;;1.65;;
78169;SDS011;67412;49.892;14.490;2023-04-15T13:18:00;6.65;;;2.30;;
78169;SDS011;67412;49.892;14.490;2023-04-15T13:20:25;6.28;;;2.63;;
78169;SDS011;67412;49.892;14.490;2023-04-15T13:22:51;3.42;;;1.58;;
78169;SDS011;67412;49.892;14.490;2023-04-15T13:25:17;3.92;;;1.50;;
78169;SDS011;67412;49.892;14.490;2023-04-15T13:27:43;3.85;;;1.50;;
78169;SDS011;67412;49.892;14.490;2023-04-15T13:30:08;2.10;;;0.90;;
78169;SDS011;67412;49.892;14.490;2023-04-15T13:32:33;2.55;;;1.00;;
78169;SDS011;67412;49.892;14.490;2023-04-15T13:34:59;2.55;;;1.15;;
78169;SDS011;67412;49.892;14.490;2023-04-15T13:37:25;2.28;;;1.00;;
78169;SDS011;67412;49.892;14.490;2023-04-15T13:39:52;1.63;;;0.82;;
78169;SDS011;67412;49.892;14.490;2023-04-15T13:42:17;2.50;;;0.95;;
78169;SDS011;67412;49.892;14.490;2023-04-15T13:44:43;3.45;;;1.30;;
78169;SDS011;67412;49.892;14.490;2023-04-15T13:47:08;5.28;;;1.70;;
78169;SDS011;67412;49.892;14.490;2023-04-15T13:49:34;6.68;;;1.83;;
78169;SDS011;67412;49.892;14.490;2023-04-15T13:51:59;5.78;;;1.90;;
78169;SDS011;67412;49.892;14.490;2023-04-15T13:54:24;4.68;;;1.55;;
78169;SDS011;67412;49.892;14.490;2023-04-15T13:56:51;4.50;;;1.27;;
78169;SDS011;67412;49.892;14.490;2023-04-15T13:59:16;3.05;;;1.10;;
78169;SDS011;67412;49.892;14.490;2023-04-15T14:01:41;1.58;;;0.80;;
78169;SDS011;67412;49.892;14.490;2023-04-15T14:04:07;3.30;;;1.20;;
78169;SDS011;67412;49.892;14.490;2023-04-15T14:06:32;3.10;;;1.30;;
78169;SDS011;67412;49.892;14.490;2023-04-15T14:08:58;2.95;;;1.10;;
78169;SDS011;67412;49.892;14.490;2023-04-15T14:11:23;3.60;;;1.40;;
78169;SDS011;67412;49.892;14.490;2023-04-15T14:13:49;6.03;;;1.50;;
78169;SDS011;67412;49.892;14.490;2023-04-15T14:16:14;5.30;;;1.92;;
78169;SDS011;67412;49.892;14.490;2023-04-15T14:18:40;2.75;;;1.27;;
78169;SDS011;67412;49.892;14.490;2023-04-15T14:21:05;3.80;;;1.35;;
78169;SDS011;67412;49.892;14.490;2023-04-15T14:23:33;5.03;;;1.60;;
78169;SDS011;67412;49.892;14.490;2023-04-15T14:25:59;4.97;;;1.60;;
78169;SDS011;67412;49.892;14.490;2023-04-15T14:28:24;5.82;;;1.95;;
78169;SDS011;67412;49.892;14.490;2023-04-15T14:30:49;5.30;;;1.60;;
78169;SDS011;67412;49.892;14.490;2023-04-15T14:33:15;5.72;;;1.40;;
78169;SDS011;67412;49.892;14.490;2023-04-15T14:35:40;3.78;;;1.70;;
78169;SDS011;67412;49.892;14.490;2023-04-15T14:38:05;3.15;;;1.40;;
78169;SDS011;67412;49.892;14.490;2023-04-15T14:40:34;3.55;;;1.35;;
78169;SDS011;67412;49.892;14.490;2023-04-15T14:43:00;3.58;;;1.70;;
78169;SDS011;67412;49.892;14.490;2023-04-15T14:45:25;4.55;;;1.58;;
78169;SDS011;67412;49.892;14.490;2023-04-15T14:47:50;4.63;;;1.95;;
78169;SDS011;67412;49.892;14.490;2023-04-15T14:50:17;4.28;;;1.60;;
78169;SDS011;67412;49.892;14.490;2023-04-15T14:52:42;5.10;;;1.90;;
78169;SDS011;67412;49.892;14.490;2023-04-15T14:55:08;4.40;;;1.40;;
78169;SDS011;67412;49.892;14.490;2023-04-15T14:57:35;4.30;;;1.30;;
78169;SDS011;67412;49.892;14.490;2023-04-15T15:00:02;3.53;;;1.25;;
78169;SDS011;67412;49.892;14.490;2023-04-15T15:02:28;4.60;;;1.55;;
78169;SDS011;67412;49.892;14.490;2023-04-15T15:04:54;5.03;;;1.70;;
78169;SDS011;67412;49.892;14.490;2023-04-15T15:07:21;2.88;;;1.10;;
78169;SDS011;67412;49.892;14.490;2023-04-15T15:09:47;5.35;;;1.90;;